Portada
METAR-TAF:

METAR-TAF

Aeroports :

Bradshaw Army Air Field

Bradshaw, Hawaii, Estats Units d'Amèrica

latitud: 19-47N, longitud: 155-33W, altitud: 1887 m

Observació

L'informe es va fer fa 17 minuts, a les 02:33 UTC
Vent 7 kt del Nord-Oest
Temperatura 20°C
Humitat 73%
Pressió 1025 hPa
Visibilitat: 16.1 km
Núvols disperses a una alçada de 1400 ft
Núvols disperses a una alçada de 2300 ft
Cel ennuvolat a una alçada de 2900 ft

METAR: PHSF 190233Z AUTO 31007KT 10SM SCT014 SCT023 BKN029 20/15 A3026 RMK AO2 CIG 014V030 SLP133 $

Hora: 16:50 (02:50 UTC)


TAF: manca

Observacions i pronòstics meteorològics de més de 4000 aeroports (METAR i TAF).

Les estacions disponibles són els punts grocs i vermells al mapa.

Posi el ratolí al punt desitjat per veure el nom de l'estació.

Feu clic per veure les observacions i els pronòstics meteorològics.

Per canviar el mapa: feu clic els botons verds amb una creu de color negre per apropar; al botó verd amb un guió per allunyar la imatge; o en les fletxes verdes per a mapes adjacents.


METAR-TAF: